Latest Weather Observations for Innisfail Aero

IDQ60801

Issued at 6:42 am EST Tuesday 7 July 2020 (issued every 10 minutes, with the page automatically refreshed every 10 minutes)

About weather observations | Map of weather stations | Latest weather observations for QLD | Other Formats
Station Details ID: 032197 Name: INNISFAIL AERODROME Lat: -17.56 Lon: 146.01 Height: 11.84 m
Data from the previous 72 hours. | See also: Recent months at Innisfail Aero
Date/Time
EST
Temp
°C
App
Temp
°C
Dew
Point
°C
Rel
Hum
%
Delta-T
°C
Wind Press
QNH
hPa
Press
MSL
hPa
Rain since
9am
mm
Dir  Spd
km/h
Gust
km/h
Spd
kts
Gust
kts
07/06:30am 19.9 19.7 18.6 92 0.8 S 17 20 9 11 1019.3 1019.3 0.4
07/06:16am 20.0 20.3 18.7 92 0.8 S 15 20 8 11 1019.1 1019.1 0.4
07/06:00am 20.0 20.3 18.7 92 0.8 SSE 15 20 8 11 1019.0 1019.0 0.4
07/05:59am 20.0 19.9 18.7 92 0.8 SSE 17 22 9 12 1019.0 1019.0 0.4
07/05:30am 19.8 20.0 18.6 93 0.7 S 15 20 8 11 1018.6 1018.6 0.4
07/05:00am 19.2 20.1 18.5 96 0.4 S 11 15 6 8 1018.6 1018.6 0.4
07/04:54am 19.1 20.8 18.4 96 0.4 S 7 13 4 7 1018.6 1018.6 0.4
07/04:30am 19.1 19.6 18.3 95 0.5 S 13 19 7 10 1018.6 1018.6 0.4
07/04:00am 19.2 19.2 18.2 94 0.6 S 15 19 8 10 1018.5 1018.5 0.4
07/03:30am 18.8 20.5 18.0 95 0.5 ESE 6 13 3 7 1018.7 1018.7 0.2
07/03:02am 18.1 20.8 17.8 98 0.2 CALM 0 0 0 0 1018.7 1018.7 0.0
07/03:00am 18.1 20.8 17.8 98 0.2 CALM 0 6 0 3 1018.7 1018.7 0.0
07/02:30am 17.9 20.5 17.6 98 0.2 CALM 0 6 0 3 1018.9 1018.9 0.0
07/02:00am 17.7 19.4 17.2 97 0.3 NNW 4 11 2 6 1019.2 1019.2 0.0
07/01:30am 17.9 20.3 16.9 94 0.6 CALM 0 0 0 0 1019.4 1019.4 0.0
07/01:21am 18.1 20.1 17.0 93 0.7 SSE 2 6 1 3 1019.5 1019.5 0.0
07/01:00am 18.0 20.3 16.7 92 0.8 CALM 0 0 0 0 1019.7 1019.7 0.0
07/12:48am 18.2 20.4 16.5 90 1.0 CALM 0 0 0 0 1019.8 1019.8 0.0
07/12:30am 18.7 20.9 16.5 87 1.3 CALM 0 0 0 0 1020.0 1020.0 0.0
07/12:00am 18.7 19.6 16.7 88 1.2 S 7 15 4 8 1020.3 1020.3 0.0
 
Date/Time
EST
Temp
°C
App
Temp
°C
Dew
Point
°C
Rel
Hum
%
Delta-T
°C
Wind Press
QNH
hPa
Press
MSL
hPa
Rain since
9am
mm
Dir  Spd
km/h
Gust
km/h
Spd
kts
Gust
kts
06/11:30pm 18.6 18.3 16.4 87 1.3 SSW 13 19 7 10 1020.5 1020.5 0.0
06/11:00pm 17.6 19.6 16.1 91 0.9 CALM 0 6 0 3 1020.9 1020.9 0.0
06/10:30pm 17.8 18.4 15.8 88 1.2 SW 7 11 4 6 1021.2 1021.2 0.0
06/10:00pm 17.7 17.9 15.7 88 1.2 WSW 9 11 5 6 1021.4 1021.4 0.0
06/09:30pm 17.3 17.4 15.6 90 1.0 SW 9 11 5 6 1021.5 1021.5 0.0
06/09:00pm 16.3 15.5 15.0 92 0.7 SSW 13 15 7 8 1021.3 1021.3 0.0
06/08:30pm 17.3 17.1 15.6 90 1.0 SW 11 13 6 7 1021.3 1021.3 0.0
06/08:00pm 16.6 16.5 15.0 90 0.9 SW 9 11 5 6 1021.3 1021.3 0.0
06/07:30pm 16.6 16.4 14.8 89 1.0 SSW 9 11 5 6 1021.0 1021.0 0.0
06/07:00pm 16.8 16.6 14.8 88 1.1 SSW 9 11 5 6 1020.8 1020.8 0.0
06/06:30pm 17.7 17.7 15.1 85 1.5 SSW 9 11 5 6 1020.5 1020.5 0.0
06/06:00pm 18.2 17.3 14.9 81 1.9 SSW 13 19 7 10 1020.2 1020.2 0.0
06/05:30pm 19.8 17.7 15.2 75 2.7 S 20 28 11 15 1020.1 1020.1 0.0
06/05:00pm 20.6 17.8 15.4 72 3.1 SSE 24 32 13 17 1019.7 1019.7 0.0
06/04:30pm 21.1 17.9 15.4 70 3.4 SSE 26 35 14 19 1019.5 1019.5 0.0
06/04:00pm 21.4 18.1 15.0 67 3.8 SSE 26 35 14 19 1019.4 1019.4 0.0
06/03:30pm 21.9 18.3 15.3 66 3.9 SSE 28 35 15 19 1019.3 1019.3 0.0
06/03:00pm 21.9 18.3 15.3 66 3.9 SSE 28 35 15 19 1019.3 1019.3 0.0
06/02:30pm 22.1 18.1 15.2 65 4.1 SSE 30 37 16 20 1019.2 1019.2 0.0
06/02:00pm 23.1 20.2 17.1 69 3.7 SSE 28 41 15 22 1019.7 1019.7 0.0
06/01:30pm 22.4 18.7 15.0 63 4.4 SSE 28 35 15 19 1019.8 1019.8 0.0
06/01:00pm 21.5 17.4 13.9 62 4.4 SSE 28 37 15 20 1020.3 1020.3 0.0
06/12:30pm 22.5 18.1 14.1 59 4.9 SSE 30 39 16 21 1020.4 1020.4 0.0
06/12:00pm 22.5 18.2 13.3 56 5.3 SSE 28 41 15 22 1020.9 1020.9 0.0
06/11:30am 22.3 17.5 12.8 55 5.4 SSE 30 44 16 24 1020.9 1020.9 0.0
06/11:00am 22.1 17.0 11.8 52 5.8 SSE 30 41 16 22 1021.2 1021.2 0.0
06/10:30am 22.3 18.7 13.1 56 5.3 SSE 24 33 13 18 1021.5 1021.5 0.0
06/10:00am 21.8 17.7 13.7 60 4.7 SSE 28 39 15 21 1021.5 1021.5 0.0
06/09:30am 21.1 18.1 14.7 67 3.8 S 24 30 13 16 1021.5 1021.5 0.0
06/09:00am 20.6 17.6 14.9 70 3.3 S 24 33 13 18 1021.6 1021.6 0.0
06/08:30am 19.7 17.6 14.7 73 2.9 S 19 24 10 13 1021.3 1021.3 0.0
06/08:00am 18.9 17.4 15.2 79 2.2 S 17 24 9 13 1021.0 1021.0 0.0
06/07:30am 18.4 16.3 15.1 81 1.9 S 20 30 11 16 1020.7 1020.7 0.0
06/07:00am 18.0 15.8 14.9 82 1.8 S 20 30 11 16 1020.3 1020.3 0.0
06/06:30am 17.8 15.6 14.5 81 1.9 S 19 24 10 13 1019.9 1019.9 0.0
06/06:00am 18.0 15.8 14.5 80 2.0 S 19 28 10 15 1019.6 1019.6 0.0
06/05:30am 17.8 15.4 14.5 81 1.9 S 20 24 11 13 1019.1 1019.1 0.0
06/05:00am 17.4 16.4 14.5 83 1.7 S 13 20 7 11 1018.9 1018.9 0.0
06/04:30am 15.9 17.6 15.3 96 0.3 CALM 0 7 0 4 1018.8 1018.8 0.0
06/04:00am 15.8 17.2 15.3 97 0.3 NE 2 7 1 4 1018.7 1018.7 0.0
06/03:30am 15.7 16.0 15.1 96 0.3 N 7 9 4 5 1018.8 1018.8 0.0
06/03:00am 15.9 16.2 14.6 92 0.7 E 6 9 3 5 1018.9 1018.9 0.0
06/02:30am 16.3 16.2 15.0 92 0.8 SSW 9 13 5 7 1019.1 1019.1 0.0
06/02:00am 15.1 16.3 14.9 99 0.1 WNW 2 7 1 4 1019.4 1019.4 0.0
06/01:30am 14.5 14.7 14.2 98 0.2 NE 6 6 3 3 1019.3 1019.3 0.0
06/01:00am 14.6 14.8 14.3 98 0.2 NNE 6 7 3 4 1019.6 1019.6 0.0
06/12:30am 14.3 15.6 14.0 98 0.2 CALM 0 0 0 0 1019.7 1019.7 0.0
06/12:00am 14.4 15.6 13.8 96 0.3 CALM 0 0 0 0 1020.1 1020.1 0.0
 
Date/Time
EST
Temp
°C
App
Temp
°C
Dew
Point
°C
Rel
Hum
%
Delta-T
°C
Wind Press
QNH
hPa
Press
MSL
hPa
Rain since
9am
mm
Dir  Spd
km/h
Gust
km/h
Spd
kts
Gust
kts
05/11:30pm 14.0 14.9 12.9 93 0.6 CALM 0 0 0 0 1020.3 1020.3 0.0
05/11:00pm 14.6 15.6 13.1 91 0.8 CALM 0 2 0 1 1020.4 1020.4 0.0
05/10:30pm 16.1 15.2 13.8 86 1.3 WSW 11 15 6 8 1020.5 1020.5 0.0
05/10:00pm 15.6 15.2 14.1 91 0.8 WSW 9 13 5 7 1020.6 1020.6 0.0
05/09:30pm 15.2 15.0 13.7 91 0.8 WSW 7 9 4 5 1020.8 1020.8 0.0
05/09:00pm 15.5 15.1 14.2 92 0.7 SW 9 11 5 6 1020.7 1020.7 0.0
05/08:30pm 15.6 15.3 14.3 92 0.7 WSW 9 11 5 6 1020.5 1020.5 0.0
05/08:00pm 15.4 15.2 13.6 89 1.0 SW 7 7 4 4 1020.3 1020.3 0.0
05/07:30pm 15.9 15.4 13.9 88 1.1 S 9 11 5 6 1020.2 1020.2 0.0
05/07:00pm 17.3 16.3 14.6 84 1.6 S 13 15 7 8 1020.0 1020.0 0.0
05/06:30pm 17.3 16.4 14.8 85 1.4 S 13 15 7 8 1019.6 1019.6 0.0
05/06:00pm 18.5 17.4 14.4 77 2.4 S 13 17 7 9 1019.3 1019.3 0.0
05/05:30pm 20.1 18.1 14.9 72 3.0 S 19 28 10 15 1019.1 1019.1 0.0
05/05:00pm 20.7 17.4 15.0 70 3.4 SSE 26 32 14 17 1018.8 1018.8 0.0
05/04:30pm 21.3 18.1 15.2 68 3.6 SSE 26 33 14 18 1018.6 1018.6 0.0
05/04:00pm 22.1 18.6 15.5 66 3.9 SSE 28 37 15 20 1018.4 1018.4 0.0
05/03:30pm 21.8 18.0 14.7 64 4.2 SSE 28 37 15 20 1018.3 1018.3 0.0
05/03:00pm 22.8 19.8 15.9 65 4.2 SSE 26 35 14 19 1018.3 1018.3 0.0
05/02:30pm 23.1 19.6 16.4 66 4.1 SSE 30 39 16 21 1018.4 1018.4 0.0
05/02:00pm 22.7 18.8 14.3 59 4.9 SSE 28 35 15 19 1018.6 1018.6 0.0
05/01:30pm 23.1 19.7 14.7 59 5.0 SSE 26 35 14 19 1019.0 1019.0 0.0
05/01:00pm 23.8 20.1 16.1 62 4.7 SSE 30 43 16 23 1019.5 1019.5 0.0
05/12:30pm 22.9 19.3 15.2 62 4.6 SSE 28 37 15 20 1019.8 1019.8 0.0
05/12:00pm 22.9 18.7 15.7 64 4.3 SSE 32 39 17 21 1020.4 1020.4 0.0
05/11:30am 23.3 18.6 14.8 59 5.0 SSE 33 44 18 24 1020.7 1020.7 0.0
05/11:00am 24.0 19.9 16.0 61 4.8 SSE 32 43 17 23 1020.9 1020.9 0.0
05/10:30am 22.9 19.2 16.0 65 4.2 SSE 30 39 16 21 1020.9 1020.9 0.0
05/10:00am 23.0 20.1 17.0 69 3.7 SSE 28 37 15 20 1020.9 1020.9 0.0
05/09:30am 21.9 19.0 17.1 74 2.9 SSE 28 37 15 20 1020.9 1020.9 0.0
05/09:00am 20.7 20.3 18.1 85 1.6 S 17 22 9 12 1020.7 1020.7 0.2
05/08:30am 19.8 19.3 17.9 89 1.2 S 17 20 9 11 1020.3 1020.3 0.2
05/08:00am 17.1 19.2 17.1 100 0.0 ESE 2 7 1 4 1019.8 1019.8 0.2
05/07:30am 15.6 17.1 15.6 100 0.0 W 2 13 1 7 1019.6 1019.6 0.2
05/07:00am 14.7 16.2 14.7 100 0.0 CALM 0 2 0 1 1019.2 1019.2 0.0
05/06:30am 14.4 14.7 14.4 100 0.0 NNE 6 9 3 5 1018.9 1018.9 0.0
05/06:00am 15.3 16.7 15.3 100 0.0 W 2 6 1 3 1018.5 1018.5 0.0
05/05:30am 14.9 16.5 14.9 100 0.0 CALM 0 6 0 3 1018.4 1018.4 0.0
05/05:00am 15.1 16.8 15.1 100 0.0 CALM 0 0 0 0 1018.3 1018.3 0.0
05/04:30am 15.3 17.0 15.3 100 0.0 CALM 0 0 0 0 1018.2 1018.2 0.0
05/04:00am 15.1 15.6 15.1 100 0.0 NW 6 7 3 4 1018.1 1018.1 0.0
05/03:30am 14.6 16.1 14.6 100 0.0 CALM 0 0 0 0 1018.4 1018.4 0.0
05/03:00am 14.2 15.5 14.2 100 0.0 CALM 0 0 0 0 1018.6 1018.6 0.0
05/02:30am 14.2 15.5 14.2 100 0.0 CALM 0 0 0 0 1018.6 1018.6 0.0
05/02:00am 14.0 15.2 13.8 99 0.1 CALM 0 0 0 0 1019.0 1019.0 0.0
05/01:30am 13.9 15.0 13.6 98 0.2 CALM 0 0 0 0 1019.2 1019.2 0.0
05/01:00am 14.2 15.4 13.9 98 0.2 CALM 0 0 0 0 1019.4 1019.4 0.0
05/12:30am 14.3 15.6 14.0 98 0.2 CALM 0 0 0 0 1019.5 1019.5 0.0
05/12:00am 14.5 15.8 14.0 97 0.3 CALM 0 0 0 0 1019.6 1019.6 0.0
 
Date/Time
EST
Temp
°C
App
Temp
°C
Dew
Point
°C
Rel
Hum
%
Delta-T
°C
Wind Press
QNH
hPa
Press
MSL
hPa
Rain since
9am
mm
Dir  Spd
km/h
Gust
km/h
Spd
kts
Gust
kts
04/11:30pm 14.8 16.2 14.3 97 0.3 CALM 0 0 0 0 1019.7 1019.7 0.0
04/11:00pm 14.7 16.0 14.2 97 0.3 CALM 0 0 0 0 1019.9 1019.9 0.0
04/10:30pm 14.3 14.3 13.7 96 0.3 NNW 6 11 3 6 1020.2 1020.2 0.0
04/10:00pm 15.3 14.1 14.0 92 0.7 W 13 15 7 8 1020.2 1020.2 0.0
04/09:30pm 14.2 15.4 13.7 97 0.3 CALM 0 0 0 0 1020.1 1020.1 0.0
04/09:00pm 14.2 15.3 13.6 96 0.3 CALM 0 0 0 0 1019.8 1019.8 0.0
04/08:30pm 14.8 15.8 14.3 97 0.3 NW 2 6 1 3 1019.7 1019.7 0.0
04/08:00pm 15.1 15.1 14.3 95 0.5 N 7 9 4 5 1019.3 1019.3 0.0
04/07:30pm 16.5 16.3 14.7 89 1.0 SW 9 11 5 6 1019.2 1019.2 0.0
04/07:00pm 17.2 17.6 15.2 88 1.2 S 7 9 4 5 1019.0 1019.0 0.0
04/06:30pm 18.3 18.9 15.4 83 1.7 S 6 7 3 4 1018.8 1018.8 0.0
04/06:00pm 18.8 18.7 14.9 78 2.3 SE 9 11 5 6 1018.5 1018.5 0.0
04/05:30pm 21.0 20.2 15.1 69 3.5 SSE 13 15 7 8 1018.3 1018.3 0.0
04/05:00pm 22.5 21.0 15.4 64 4.2 SE 17 22 9 12 1018.0 1018.0 0.0
04/04:30pm 23.2 21.3 15.3 61 4.7 SSE 19 22 10 12 1018.0 1018.0 0.0
04/04:00pm 23.5 21.3 15.0 59 5.1 SSE 20 26 11 14 1017.9 1017.9 0.0
04/03:30pm 24.0 21.8 15.0 57 5.4 SE 20 28 11 15 1017.7 1017.7 0.0
04/03:00pm 24.6 22.0 15.0 55 5.7 SE 22 30 12 16 1017.7 1017.7 0.0
04/02:30pm 24.9 22.9 15.5 56 5.7 SE 20 30 11 16 1017.5 1017.5 0.0
04/02:00pm 24.8 22.5 14.6 53 6.1 SE 20 30 11 16 1017.9 1017.9 0.0
04/01:30pm 25.0 23.1 15.3 55 5.8 SE 19 28 10 15 1018.2 1018.2 0.0
04/01:00pm 25.1 23.1 15.4 55 5.8 SE 20 30 11 16 1018.5 1018.5 0.0
04/12:30pm 24.2 22.4 15.9 59 5.0 SE 20 28 11 15 1019.0 1019.0 0.0
04/12:00pm 24.4 23.0 17.1 63 4.5 SSE 20 30 11 16 1019.5 1019.5 0.0
04/11:30am 24.1 23.2 18.1 69 3.8 SSE 20 28 11 15 1019.9 1019.9 0.0
04/11:00am 23.8 23.4 18.9 74 3.1 SSE 19 28 10 15 1020.3 1020.3 0.0
04/10:30am 23.4 22.5 18.3 73 3.2 SSE 20 26 11 14 1020.4 1020.4 0.0
04/10:00am 22.5 21.8 18.3 77 2.6 S 19 24 10 13 1020.5 1020.5 0.0
04/09:30am 22.1 21.9 18.5 80 2.3 S 17 26 9 14 1020.6 1020.6 0.0
04/09:00am 19.7 22.7 18.4 92 0.8 CALM 0 0 0 0 1020.7 1020.7 0.2
04/08:30am 18.4 21.4 18.4 100 0.0 CALM 0 6 0 3 1020.6 1020.6 0.2
04/08:00am 17.0 19.4 17.0 100 0.0 CALM 0 0 0 0 1020.1 1020.1 0.2
04/07:30am 15.0 16.6 15.0 100 0.0 CALM 0 0 0 0 1019.7 1019.7 0.2
04/07:27am 15.0 16.6 15.0 100 0.0 CALM 0 0 0 0 1019.7 1019.7 0.2
04/07:00am 14.9 16.5 14.9 100 0.0 CALM 0 2 0 1 1019.6 1019.6 0.2

Other formats

Comma delimited format used in spreadsheet applications
http://www.bom.gov.au/fwo/IDQ60801/IDQ60801.94280.axf

JavaScript Object Notation format (JSON) in row-major order
http://www.bom.gov.au/fwo/IDQ60801/IDQ60801.94280.json

Data quality

Most of these data are generated automatically and are frequently updated. Quality checks on data are not normally performed. It is possible for incorrect values to appear. Refer to information at About Latest Weather Observations and please check the disclaimer before using these data.